Time;durP1;ratioP1;P1;durP2;ratioP2;P2;SDS_P1;SDS_P2;PMS_P1;PMS_P2;Temp;Humidity;BMP_temperature;BMP_pressure;BME280_temperature;BME280_humidity;BME280_pressure;Samples;Min_cycle;Max_cycle;Signal;HPM_P1;HPM_P2
2022/07/04 00:01:58;;;;;;;16.67;15.73;;;;;;;;;;5065073;28;20024;-62
2022/07/04 00:04:23;;;;;;;15.98;15.07;;;;;;;;;;5060313;28;20071;-62
2022/07/04 00:06:49;;;;;;;15.25;14.35;;;;;;;;;;5056488;28;20059;-62
2022/07/04 00:09:14;;;;;;;17.80;16.80;;;;;;;;;;5055366;28;20354;-62
2022/07/04 00:11:39;;;;;;;16.42;15.52;;;;;;;;;;5058562;28;20024;-62
2022/07/04 00:14:05;;;;;;;18.95;17.92;;;;;;;;;;5056129;28;20102;-63
2022/07/04 00:16:30;;;;;;;17.50;16.50;;;;;;;;;;5057855;28;20104;-62
2022/07/04 00:18:56;;;;;;;16.00;15.10;;;;;;;;;;5057944;28;20028;-62
2022/07/04 00:21:21;;;;;;;17.80;16.80;;;;;;;;;;5056048;28;20039;-62
2022/07/04 00:23:46;;;;;;;16.98;16.05;;;;;;;;;;5056563;28;20086;-63
2022/07/04 00:26:12;;;;;;;14.77;13.98;;;;;;;;;;5056858;28;20032;-62
2022/07/04 00:28:37;;;;;;;19.10;18.10;;;;;;;;;;5055334;28;20047;-63
2022/07/04 00:31:02;;;;;;;17.73;16.73;;;;;;;;;;5058530;28;20025;-62
2022/07/04 00:33:28;;;;;;;20.50;19.40;;;;;;;;;;5056150;28;20054;-62
2022/07/04 00:35:53;;;;;;;21.23;20.02;;;;;;;;;;5055137;28;20613;-63
2022/07/04 00:38:18;;;;;;;22.88;21.67;;;;;;;;;;5057772;28;20037;-62
2022/07/04 00:40:44;;;;;;;23.60;22.30;;;;;;;;;;5056571;28;20040;-62
2022/07/04 00:43:09;;;;;;;22.48;21.27;;;;;;;;;;5056244;28;20441;-62
2022/07/04 00:45:35;;;;;;;26.60;25.20;;;;;;;;;;5054418;28;20462;-63
2022/07/04 00:48:00;;;;;;;23.77;22.48;;;;;;;;;;5054985;28;20027;-64
2022/07/04 00:50:26;;;;;;;24.55;23.25;;;;;;;;;;5054458;28;20113;-63
2022/07/04 00:52:53;;;;;;;25.35;24.05;;;;;;;;;;5056821;28;20374;-63
2022/07/04 00:55:19;;;;;;;25.20;23.80;;;;;;;;;;5053665;28;20108;-63
2022/07/04 00:57:45;;;;;;;26.67;25.27;;;;;;;;;;5055985;28;20033;-62
2022/07/04 01:00:10;;;;;;;27.15;25.75;;;;;;;;;;5055533;28;20033;-62
2022/07/04 01:02:36;;;;;;;26.05;24.67;;;;;;;;;;5054619;28;20047;-62
2022/07/04 01:05:01;;;;;;;25.45;24.13;;;;;;;;;;5056128;28;20047;-63
2022/07/04 01:07:27;;;;;;;26.40;25.00;;;;;;;;;;5057435;28;20024;-63
2022/07/04 01:09:53;;;;;;;25.38;24.00;;;;;;;;;;5054330;28;20112;-64
2022/07/04 01:12:26;;;;;;;29.88;28.27;;;;;;;;;;5055358;28;20035;-63
2022/07/04 01:14:51;;;;;;;28.25;26.75;;;;;;;;;;5054957;28;20691;-64
2022/07/04 01:17:17;;;;;;;26.48;25.08;;;;;;;;;;5058005;28;20036;-64
2022/07/04 01:19:42;;;;;;;24.75;23.45;;;;;;;;;;5053689;28;20075;-64
2022/07/04 01:22:08;;;;;;;22.95;21.75;;;;;;;;;;5055542;28;20517;-63
2022/07/04 01:24:33;;;;;;;20.35;19.25;;;;;;;;;;5055278;28;20111;-63
2022/07/04 01:26:59;;;;;;;21.95;20.75;;;;;;;;;;5056321;28;20663;-64
2022/07/04 01:29:24;;;;;;;18.88;17.85;;;;;;;;;;5055574;28;20092;-64
2022/07/04 01:31:50;;;;;;;17.45;16.45;;;;;;;;;;5054355;28;20021;-64
2022/07/04 01:34:15;;;;;;;17.55;16.55;;;;;;;;;;5055506;28;20031;-64
2022/07/04 01:36:40;;;;;;;17.83;16.83;;;;;;;;;;5056202;28;20035;-64
2022/07/04 01:39:06;;;;;;;16.52;15.63;;;;;;;;;;5056910;28;20036;-64
2022/07/04 01:41:35;;;;;;;14.48;13.68;;;;;;;;;;5053310;28;20237;-64
2022/07/04 01:44:01;;;;;;;15.93;15.02;;;;;;;;;;5051677;28;20106;-63
2022/07/04 01:46:26;;;;;;;13.85;13.05;;;;;;;;;;5054448;28;20474;-64
2022/07/04 01:48:51;;;;;;;14.68;13.88;;;;;;;;;;5054227;28;20037;-64
2022/07/04 01:51:17;;;;;;;14.63;13.82;;;;;;;;;;5057989;28;20024;-64
2022/07/04 01:53:42;;;;;;;14.85;14.05;;;;;;;;;;5056472;28;20595;-64
2022/07/04 01:56:07;;;;;;;15.35;14.45;;;;;;;;;;5055558;28;20090;-64
2022/07/04 01:58:33;;;;;;;15.77;14.88;;;;;;;;;;5052836;28;20032;-64
2022/07/04 02:03:43;;;;;;;14.95;14.07;;;;;;;;;;5054105;28;20025;-64
2022/07/04 02:06:08;;;;;;;17.85;16.85;;;;;;;;;;5054430;28;20021;-64
2022/07/04 02:11:18;;;;;;;17.90;16.90;;;;;;;;;;5055872;28;20127;-64
2022/07/04 02:13:43;;;;;;;22.45;21.25;;;;;;;;;;5053814;28;20116;-64
2022/07/04 02:16:09;;;;;;;22.98;21.77;;;;;;;;;;5052592;28;20442;-64
2022/07/04 02:18:34;;;;;;;20.17;19.08;;;;;;;;;;5051468;28;20105;-64
2022/07/04 02:20:59;;;;;;;20.40;19.30;;;;;;;;;;5051339;28;20514;-64
2022/07/04 02:23:25;;;;;;;21.20;20.00;;;;;;;;;;5052137;28;20029;-64
2022/07/04 02:25:50;;;;;;;19.27;18.23;;;;;;;;;;5055145;28;20530;-65
2022/07/04 02:28:15;;;;;;;17.08;16.13;;;;;;;;;;5055899;28;20454;-64
2022/07/04 02:30:41;;;;;;;17.92;16.92;;;;;;;;;;5052483;28;20537;-63
2022/07/04 02:33:06;;;;;;;16.77;15.85;;;;;;;;;;5056130;28;20404;-64
2022/07/04 02:35:31;;;;;;;15.27;14.38;;;;;;;;;;5054926;28;20028;-63
2022/07/04 02:37:57;;;;;;;14.82;14.02;;;;;;;;;;5055006;28;20426;-64
2022/07/04 02:40:22;;;;;;;15.13;14.23;;;;;;;;;;5053732;28;20228;-63
2022/07/04 02:42:47;;;;;;;14.30;13.50;;;;;;;;;;5053205;28;20064;-64
2022/07/04 02:45:13;;;;;;;14.75;13.95;;;;;;;;;;5054477;28;20029;-64
2022/07/04 02:47:39;;;;;;;12.63;11.90;;;;;;;;;;5054387;28;20178;-64
2022/07/04 02:50:05;;;;;;;13.27;12.48;;;;;;;;;;5052850;28;20347;-64
2022/07/04 02:52:31;;;;;;;13.98;12.93;;;;;;;;;;5050951;28;20057;-64
2022/07/04 02:54:57;;;;;;;11.57;10.88;;;;;;;;;;5052922;28;20683;-65
2022/07/04 02:57:22;;;;;;;10.50;9.90;;;;;;;;;;5053208;28;20036;-64
2022/07/04 02:59:48;;;;;;;10.25;9.65;;;;;;;;;;5057537;28;20029;-64
2022/07/04 03:02:14;;;;;;;11.40;10.70;;;;;;;;;;5057950;28;20048;-64
2022/07/04 03:04:39;;;;;;;10.52;9.85;;;;;;;;;;5055702;28;20142;-64
2022/07/04 03:07:07;;;;;;;10.07;9.45;;;;;;;;;;5057558;28;20047;-64
2022/07/04 03:09:32;;;;;;;9.30;8.70;;;;;;;;;;5058074;28;20021;-64
2022/07/04 03:11:58;;;;;;;10.98;10.27;;;;;;;;;;5060853;28;20087;-65
2022/07/04 03:14:23;;;;;;;11.70;10.98;;;;;;;;;;5058299;28;20063;-65
2022/07/04 03:16:48;;;;;;;11.07;10.40;;;;;;;;;;5054892;28;20029;-64
2022/07/04 03:19:14;;;;;;;9.88;9.27;;;;;;;;;;5061503;28;20032;-64
2022/07/04 03:21:39;;;;;;;12.68;11.98;;;;;;;;;;5054153;28;20098;-63
2022/07/04 03:24:05;;;;;;;12.20;11.40;;;;;;;;;;5054728;28;20047;-65
2022/07/04 03:26:32;;;;;;;11.65;10.95;;;;;;;;;;5060325;28;20123;-64
2022/07/04 03:28:58;;;;;;;12.55;11.82;;;;;;;;;;5058880;28;20036;-64
2022/07/04 03:31:25;;;;;;;12.68;11.98;;;;;;;;;;5058942;28;20079;-64
2022/07/04 03:33:51;;;;;;;13.45;12.65;;;;;;;;;;5058226;28;20025;-65
2022/07/04 03:36:19;;;;;;;13.70;12.90;;;;;;;;;;5062011;28;20036;-64
2022/07/04 03:38:45;;;;;;;14.63;13.82;;;;;;;;;;5064193;28;20040;-63
2022/07/04 03:41:11;;;;;;;14.80;13.55;;;;;;;;;;5057134;28;20036;-64
2022/07/04 03:43:37;;;;;;;14.68;13.88;;;;;;;;;;5056098;28;20041;-64
2022/07/04 03:46:02;;;;;;;12.05;11.35;;;;;;;;;;5060655;28;20086;-64
2022/07/04 03:48:28;;;;;;;13.35;12.55;;;;;;;;;;5056504;28;20085;-63
2022/07/04 03:50:53;;;;;;;11.85;11.15;;;;;;;;;;5056155;28;20032;-64
2022/07/04 03:53:19;;;;;;;12.23;11.52;;;;;;;;;;5055446;28;20110;-63
2022/07/04 03:55:45;;;;;;;10.75;10.13;;;;;;;;;;5053662;28;20017;-63
2022/07/04 03:58:10;;;;;;;11.38;10.68;;;;;;;;;;5054022;28;20077;-63
2022/07/04 04:00:36;;;;;;;11.75;11.05;;;;;;;;;;5056297;28;20033;-64
2022/07/04 04:03:01;;;;;;;10.68;10.07;;;;;;;;;;5054071;28;20434;-63
2022/07/04 04:05:27;;;;;;;10.65;9.95;;;;;;;;;;5058441;28;20028;-62
2022/07/04 04:07:57;;;;;;;9.77;9.18;;;;;;;;;;5057446;28;20039;-62
2022/07/04 04:10:22;;;;;;;10.18;9.55;;;;;;;;;;5056178;28;20059;-62
2022/07/04 04:12:48;;;;;;;9.88;9.27;;;;;;;;;;5057753;28;20613;-62
2022/07/04 04:15:13;;;;;;;10.48;9.82;;;;;;;;;;5057606;28;20073;-63
2022/07/04 04:17:39;;;;;;;9.10;8.50;;;;;;;;;;5054769;28;20127;-63
2022/07/04 04:20:05;;;;;;;8.32;7.72;;;;;;;;;;5057818;28;20066;-62
2022/07/04 04:22:30;;;;;;;8.18;7.68;;;;;;;;;;5053387;28;20029;-62
2022/07/04 04:24:57;;;;;;;8.13;7.63;;;;;;;;;;5054381;28;20147;-63
2022/07/04 04:27:22;;;;;;;8.20;7.70;;;;;;;;;;5055890;28;20089;-63
2022/07/04 04:29:48;;;;;;;9.15;8.57;;;;;;;;;;5057270;28;20116;-63
2022/07/04 04:32:13;;;;;;;9.38;8.77;;;;;;;;;;5056359;28;20498;-63
2022/07/04 04:34:39;;;;;;;9.02;8.43;;;;;;;;;;5057871;28;20170;-63
2022/07/04 04:37:04;;;;;;;9.93;9.32;;;;;;;;;;5060248;28;20107;-63
2022/07/04 04:39:29;;;;;;;9.52;8.93;;;;;;;;;;5058098;28;20050;-63
2022/07/04 04:41:55;;;;;;;8.73;8.13;;;;;;;;;;5054948;28;20046;-63
2022/07/04 04:44:20;;;;;;;9.50;8.90;;;;;;;;;;5054586;28;20457;-62
2022/07/04 04:46:46;;;;;;;10.38;9.77;;;;;;;;;;5056940;28;20105;-63
2022/07/04 04:49:11;;;;;;;11.80;11.10;;;;;;;;;;5054022;28;20645;-62
2022/07/04 04:51:38;;;;;;;12.05;11.35;;;;;;;;;;5051259;28;20045;-62
2022/07/04 04:54:03;;;;;;;12.70;11.93;;;;;;;;;;5052290;28;20251;-63
2022/07/04 04:56:29;;;;;;;12.45;11.75;;;;;;;;;;5056129;28;20025;-62
2022/07/04 04:58:54;;;;;;;13.40;12.60;;;;;;;;;;5054983;28;20024;-63
2022/07/04 05:01:19;;;;;;;12.68;11.95;;;;;;;;;;5056731;28;20477;-62
2022/07/04 05:03:45;;;;;;;13.30;12.50;;;;;;;;;;5054311;28;20024;-62
2022/07/04 05:06:10;;;;;;;12.00;11.30;;;;;;;;;;5053983;28;20057;-63
2022/07/04 05:08:35;;;;;;;12.32;11.63;;;;;;;;;;5058694;28;20647;-62
2022/07/04 05:11:01;;;;;;;12.88;12.13;;;;;;;;;;5056878;28;20768;-63
2022/07/04 05:13:26;;;;;;;13.13;12.35;;;;;;;;;;5055892;28;20159;-63
2022/07/04 05:15:52;;;;;;;12.40;11.60;;;;;;;;;;5053869;28;20043;-62
2022/07/04 05:18:17;;;;;;;11.73;11.02;;;;;;;;;;5055128;28;20124;-63
2022/07/04 05:20:42;;;;;;;11.30;10.60;;;;;;;;;;5053652;28;20520;-63
2022/07/04 05:23:08;;;;;;;11.02;10.32;;;;;;;;;;5058183;28;20517;-65
2022/07/04 05:25:33;;;;;;;10.75;10.10;;;;;;;;;;5057578;28;20540;-63
2022/07/04 05:27:59;;;;;;;11.10;10.40;;;;;;;;;;5056742;28;20450;-62
2022/07/04 05:30:25;;;;;;;10.32;9.73;;;;;;;;;;5055909;28;20509;-62
2022/07/04 05:32:50;;;;;;;11.75;11.05;;;;;;;;;;5055386;28;20112;-62
2022/07/04 05:35:15;;;;;;;11.68;10.98;;;;;;;;;;5054867;28;20031;-62
2022/07/04 05:37:41;;;;;;;13.70;12.90;;;;;;;;;;5055505;28;20744;-62
2022/07/04 05:40:08;;;;;;;12.52;11.82;;;;;;;;;;5056630;28;20442;-62
2022/07/04 05:42:36;;;;;;;13.43;12.63;;;;;;;;;;5053800;28;20059;-59
2022/07/04 05:45:02;;;;;;;13.27;12.48;;;;;;;;;;5055550;28;20040;-59
2022/07/04 05:47:28;;;;;;;12.85;12.13;;;;;;;;;;5053936;28;20411;-59
2022/07/04 05:49:53;;;;;;;13.48;12.68;;;;;;;;;;5054165;28;20024;-59
2022/07/04 05:52:19;;;;;;;15.70;14.80;;;;;;;;;;5052992;28;20475;-59
2022/07/04 05:54:44;;;;;;;13.82;13.02;;;;;;;;;;5058714;28;20029;-59
2022/07/04 05:57:10;;;;;;;14.75;13.93;;;;;;;;;;5054488;28;20032;-59
2022/07/04 05:59:36;;;;;;;13.77;12.55;;;;;;;;;;5056120;28;20036;-59
2022/07/04 06:02:01;;;;;;;13.38;12.57;;;;;;;;;;5056790;28;20029;-59
2022/07/04 06:04:27;;;;;;;13.88;12.35;;;;;;;;;;5055195;28;20028;-59
2022/07/04 06:06:52;;;;;;;13.60;12.80;;;;;;;;;;5055405;28;20029;-59
2022/07/04 06:09:18;;;;;;;14.63;13.18;;;;;;;;;;5055830;28;20020;-60
2022/07/04 06:11:43;;;;;;;11.50;10.80;;;;;;;;;;5052817;28;20050;-59
2022/07/04 06:14:09;;;;;;;12.60;11.90;;;;;;;;;;5054288;28;20486;-60
2022/07/04 06:16:34;;;;;;;12.30;11.60;;;;;;;;;;5057094;28;20028;-59
2022/07/04 06:18:59;;;;;;;13.40;12.63;;;;;;;;;;5054587;28;20576;-59
2022/07/04 06:21:25;;;;;;;12.80;11.90;;;;;;;;;;5054906;28;20072;-59
2022/07/04 06:23:50;;;;;;;11.70;11.00;;;;;;;;;;5056545;28;20020;-60
2022/07/04 06:26:15;;;;;;;12.63;11.93;;;;;;;;;;5054930;28;20036;-59
2022/07/04 06:28:41;;;;;;;13.75;12.95;;;;;;;;;;5052500;28;20735;-59
2022/07/04 06:31:06;;;;;;;13.45;12.65;;;;;;;;;;5054445;28;20542;-59
2022/07/04 06:33:32;;;;;;;12.95;12.18;;;;;;;;;;5056757;28;20708;-60
2022/07/04 06:35:58;;;;;;;15.32;14.38;;;;;;;;;;5057539;28;20020;-59
2022/07/04 06:38:26;;;;;;;16.95;16.02;;;;;;;;;;5060402;28;20055;-59
2022/07/04 06:40:58;;;;;;;23.30;21.98;;;;;;;;;;5058437;28;20524;-59
2022/07/04 06:43:25;;;;;;;23.95;22.70;;;;;;;;;;5056004;28;20040;-59
2022/07/04 06:45:50;;;;;;;26.00;24.63;;;;;;;;;;5060695;28;20486;-59
2022/07/04 06:48:16;;;;;;;27.90;26.45;;;;;;;;;;5060120;28;20083;-59
2022/07/04 06:50:41;;;;;;;34.03;32.28;;;;;;;;;;5059982;28;20141;-58
2022/07/04 06:53:08;;;;;;;31.27;29.67;;;;;;;;;;5056966;28;20453;-58
2022/07/04 06:55:33;;;;;;;28.08;26.58;;;;;;;;;;5056968;28;20033;-58
2022/07/04 06:57:59;;;;;;;30.38;28.77;;;;;;;;;;5058946;28;20123;-58
2022/07/04 07:00:25;;;;;;;30.98;29.38;;;;;;;;;;5057854;28;20025;-59
2022/07/04 07:02:50;;;;;;;37.92;35.97;;;;;;;;;;5056967;28;20107;-59
2022/07/04 07:05:16;;;;;;;35.05;33.25;;;;;;;;;;5057346;28;20720;-59
2022/07/04 07:07:41;;;;;;;39.10;37.10;;;;;;;;;;5055612;28;20031;-59
2022/07/04 07:10:07;;;;;;;30.38;28.67;;;;;;;;;;5059142;28;20029;-59
2022/07/04 07:12:33;;;;;;;30.17;28.58;;;;;;;;;;5057552;28;20069;-59
2022/07/04 07:14:59;;;;;;;44.15;41.90;;;;;;;;;;5057174;28;20988;-59
2022/07/04 07:17:24;;;;;;;32.58;30.30;;;;;;;;;;5058083;28;20024;-59
2022/07/04 07:19:49;;;;;;;36.92;34.75;;;;;;;;;;5057196;28;20025;-59
2022/07/04 07:22:15;;;;;;;33.97;32.20;;;;;;;;;;5061159;28;20060;-58
2022/07/04 07:24:41;;;;;;;39.97;37.92;;;;;;;;;;5058311;28;20025;-59
2022/07/04 07:27:08;;;;;;;31.48;29.77;;;;;;;;;;5060062;28;20028;-58
2022/07/04 07:29:34;;;;;;;37.58;35.63;;;;;;;;;;5055586;28;20029;-59
2022/07/04 07:32:00;;;;;;;29.77;28.23;;;;;;;;;;5055045;28;20064;-59
2022/07/04 07:34:25;;;;;;;31.10;29.45;;;;;;;;;;5058667;28;20505;-58
2022/07/04 07:36:51;;;;;;;29.10;27.60;;;;;;;;;;5057427;28;20043;-59
2022/07/04 07:39:16;;;;;;;35.05;33.15;;;;;;;;;;5056831;28;20522;-58
2022/07/04 07:41:41;;;;;;;40.13;38.05;;;;;;;;;;5056522;28;20112;-57
2022/07/04 07:44:07;;;;;;;36.55;34.65;;;;;;;;;;5059325;28;20033;-58
2022/07/04 07:46:33;;;;;;;37.83;35.92;;;;;;;;;;5057427;28;20112;-58
2022/07/04 07:48:58;;;;;;;42.13;40.00;;;;;;;;;;5056308;28;20032;-58
2022/07/04 07:51:25;;;;;;;37.42;35.53;;;;;;;;;;5058407;28;20511;-58
2022/07/04 07:53:50;;;;;;;37.78;35.85;;;;;;;;;;5057207;28;20040;-58
2022/07/04 07:56:16;;;;;;;39.70;37.67;;;;;;;;;;5056691;28;20035;-58
2022/07/04 07:58:41;;;;;;;40.50;38.45;;;;;;;;;;5056425;28;20041;-59
2022/07/04 08:01:06;;;;;;;30.15;28.55;;;;;;;;;;5054339;28;20032;-59
2022/07/04 08:06:16;;;;;;;33.42;31.73;;;;;;;;;;5054401;28;20573;-58
2022/07/04 08:08:42;;;;;;;43.65;41.45;;;;;;;;;;5053802;28;20068;-58
2022/07/04 08:11:09;;;;;;;43.97;41.75;;;;;;;;;;5058973;28;20020;-60
2022/07/04 08:13:34;;;;;;;33.08;31.20;;;;;;;;;;5059702;28;20028;-58
2022/07/04 08:16:00;;;;;;;64.78;61.58;;;;;;;;;;5056663;28;20416;-59
2022/07/04 08:18:26;;;;;;;58.35;55.42;;;;;;;;;;5055534;28;20391;-57
2022/07/04 08:20:51;;;;;;;85.45;81.28;;;;;;;;;;5054537;28;20040;-58
2022/07/04 08:23:17;;;;;;;82.32;78.28;;;;;;;;;;5057358;28;20035;-57
2022/07/04 08:25:42;;;;;;;91.63;87.13;;;;;;;;;;5056868;28;20025;-57
2022/07/04 08:28:08;;;;;;;67.68;64.28;;;;;;;;;;5055244;28;20131;-60
2022/07/04 08:30:33;;;;;;;90.93;86.43;;;;;;;;;;5055645;28;20029;-59
2022/07/04 08:32:58;;;;;;;96.90;92.18;;;;;;;;;;5057423;28;20024;-59
2022/07/04 08:35:25;;;;;;;84.80;80.63;;;;;;;;;;5059835;28;20071;-60
2022/07/04 08:37:53;;;;;;;85.47;81.28;;;;;;;;;;5053414;28;20028;-59
2022/07/04 08:40:22;;;;;;;105.55;100.35;;;;;;;;;;5055436;28;20075;-59
2022/07/04 08:42:49;;;;;;;79.78;75.82;;;;;;;;;;5055702;28;20035;-60
2022/07/04 08:45:16;;;;;;;85.70;81.47;;;;;;;;;;5057437;28;20039;-60
2022/07/04 08:47:43;;;;;;;89.60;85.07;;;;;;;;;;5055291;28;20076;-61
2022/07/04 08:50:12;;;;;;;79.57;75.65;;;;;;;;;;5055642;28;20033;-59
2022/07/04 08:52:42;;;;;;;93.15;88.60;;;;;;;;;;5063884;28;20061;-60
2022/07/04 09:00:42;;;;;;;66.05;62.80;;;;;;;;;;5055284;28;20120;-60
2022/07/04 09:03:09;;;;;;;71.10;67.57;;;;;;;;;;5054071;28;20040;-60
2022/07/04 09:05:34;;;;;;;75.65;71.85;;;;;;;;;;5056442;28;20040;-60
2022/07/04 09:08:01;;;;;;;61.13;58.08;;;;;;;;;;5056518;28;20078;-60
2022/07/04 09:10:27;;;;;;;72.15;68.47;;;;;;;;;;5062214;28;20494;-58
2022/07/04 09:12:52;;;;;;;56.53;53.70;;;;;;;;;;5054375;28;20082;-60
2022/07/04 09:15:18;;;;;;;73.25;69.63;;;;;;;;;;5055513;28;20052;-60
2022/07/04 09:17:44;;;;;;;67.78;64.38;;;;;;;;;;5058792;28;20020;-60
2022/07/04 09:20:16;;;;;;;85.80;81.57;;;;;;;;;;5052450;28;20025;-60
2022/07/04 09:22:42;;;;;;;60.38;57.38;;;;;;;;;;5054965;28;20119;-59
2022/07/04 09:25:12;;;;;;;70.32;66.85;;;;;;;;;;5055467;28;20102;-59
2022/07/04 09:27:47;;;;;;;83.65;79.47;;;;;;;;;;5056238;28;20029;-60
2022/07/04 09:30:17;;;;;;;66.35;63.05;;;;;;;;;;5054374;28;20156;-60
2022/07/04 09:32:53;;;;;;;70.65;67.13;;;;;;;;;;5062988;28;20028;-60
2022/07/04 09:35:24;;;;;;;69.22;65.75;;;;;;;;;;5056325;28;20080;-59
2022/07/04 09:37:52;;;;;;;73.40;69.78;;;;;;;;;;5056147;28;20365;-60
2022/07/04 09:40:24;;;;;;;53.15;50.50;;;;;;;;;;5055587;28;20036;-60
2022/07/04 09:42:50;;;;;;;59.97;56.97;;;;;;;;;;5057667;28;20124;-60
2022/07/04 09:45:16;;;;;;;60.10;57.10;;;;;;;;;;5057634;28;20111;-60
2022/07/04 09:47:44;;;;;;;60.28;57.28;;;;;;;;;;5054984;28;20043;-59
2022/07/04 09:50:16;;;;;;;58.70;55.78;;;;;;;;;;5057771;28;20039;-60
2022/07/04 09:52:56;;;;;;;65.05;61.85;;;;;;;;;;5055130;28;20041;-59
2022/07/04 09:55:33;;;;;;;60.30;57.25;;;;;;;;;;5054520;28;20100;-59
2022/07/04 09:58:01;;;;;;;62.35;59.25;;;;;;;;;;5039708;28;20037;-60
2022/07/04 10:00:31;;;;;;;59.28;56.33;;;;;;;;;;5056940;28;20028;-58
2022/07/04 10:03:15;;;;;;;54.65;51.90;;;;;;;;;;5054899;28;20563;-60
2022/07/04 10:05:40;;;;;;;50.42;47.88;;;;;;;;;;5057608;28;20119;-61
2022/07/04 10:08:06;;;;;;;60.55;57.53;;;;;;;;;;5056224;28;20537;-59
2022/07/04 10:10:32;;;;;;;67.82;64.43;;;;;;;;;;5052755;28;20036;-59
2022/07/04 10:13:02;;;;;;;58.65;55.65;;;;;;;;;;5054755;28;20043;-60
2022/07/04 10:15:28;;;;;;;58.88;55.95;;;;;;;;;;5053723;28;20102;-61
2022/07/04 10:17:53;;;;;;;50.05;47.45;;;;;;;;;;5056443;28;20424;-58
2022/07/04 10:20:19;;;;;;;53.00;50.33;;;;;;;;;;5055486;28;20029;-58
2022/07/04 10:22:44;;;;;;;59.25;56.25;;;;;;;;;;5054960;28;20041;-61
2022/07/04 10:25:10;;;;;;;53.38;50.67;;;;;;;;;;5056952;28;20028;-58
2022/07/04 10:27:37;;;;;;;54.33;51.60;;;;;;;;;;5056800;28;20033;-58
2022/07/04 10:30:06;;;;;;;56.20;53.38;;;;;;;;;;5056432;28;20024;-58
2022/07/04 10:32:32;;;;;;;59.30;56.33;;;;;;;;;;5056526;28;20415;-57
2022/07/04 10:34:58;;;;;;;69.88;66.38;;;;;;;;;;5053316;28;20553;-57
2022/07/04 10:37:23;;;;;;;70.50;67.00;;;;;;;;;;5055305;28;20075;-57
2022/07/04 10:39:49;;;;;;;80.95;76.95;;;;;;;;;;5055555;28;20032;-58
2022/07/04 10:42:25;;;;;;;66.90;63.60;;;;;;;;;;5052408;28;20120;-57
2022/07/04 10:44:52;;;;;;;68.75;65.35;;;;;;;;;;5055369;28;20442;-59
2022/07/04 10:47:27;;;;;;;76.53;72.72;;;;;;;;;;5054866;28;20112;-58
2022/07/04 10:49:53;;;;;;;73.25;69.57;;;;;;;;;;5057235;28;20074;-57
2022/07/04 10:52:18;;;;;;;61.10;58.00;;;;;;;;;;5054942;28;20025;-57
2022/07/04 10:54:44;;;;;;;58.65;55.75;;;;;;;;;;5053591;28;20633;-58
2022/07/04 10:57:11;;;;;;;63.65;60.45;;;;;;;;;;5056573;28;20028;-58
2022/07/04 10:59:38;;;;;;;56.08;53.28;;;;;;;;;;5055167;28;20107;-58
2022/07/04 11:02:03;;;;;;;55.78;52.97;;;;;;;;;;5054109;28;20116;-58
2022/07/04 11:04:51;;;;;;;58.28;55.35;;;;;;;;;;5054061;28;20119;-57
2022/07/04 11:07:18;;;;;;;57.65;54.75;;;;;;;;;;5055611;28;20052;-57
2022/07/04 11:09:44;;;;;;;53.92;51.22;;;;;;;;;;5054876;28;20040;-58
2022/07/04 11:12:12;;;;;;;50.42;47.90;;;;;;;;;;5054876;28;20526;-58
2022/07/04 11:14:45;;;;;;;68.20;64.82;;;;;;;;;;5052606;28;20041;-57
2022/07/04 11:17:26;;;;;;;51.75;49.15;;;;;;;;;;5053468;28;20450;-58
2022/07/04 11:20:00;;;;;;;59.38;56.38;;;;;;;;;;5056526;28;20025;-58
2022/07/04 11:22:25;;;;;;;77.43;73.60;;;;;;;;;;5056512;28;20035;-58
2022/07/04 11:24:50;;;;;;;66.50;63.20;;;;;;;;;;5058134;28;20661;-58
2022/07/04 11:27:16;;;;;;;68.60;65.20;;;;;;;;;;5060521;28;20100;-58
2022/07/04 11:29:54;;;;;;;73.75;70.10;;;;;;;;;;5059251;28;20028;-58
2022/07/04 11:32:21;;;;;;;60.05;57.05;;;;;;;;;;5057228;28;20029;-58
2022/07/04 11:34:48;;;;;;;50.65;48.10;;;;;;;;;;5059599;28;20029;-59
2022/07/04 11:37:14;;;;;;;66.07;62.78;;;;;;;;;;5056998;28;20032;-59
2022/07/04 11:39:40;;;;;;;52.03;49.42;;;;;;;;;;5058431;28;20052;-58
2022/07/04 11:45:07;;;;;;;44.78;42.47;;;;;;;;;;5054060;28;20446;-59
2022/07/04 11:47:37;;;;;;;44.88;42.58;;;;;;;;;;5055869;28;20040;-59
2022/07/04 11:50:10;;;;;;;44.70;42.40;;;;;;;;;;5056915;28;20021;-59
2022/07/04 11:52:53;;;;;;;44.78;42.50;;;;;;;;;;5058611;28;20509;-60
2022/07/04 11:55:19;;;;;;;42.58;40.40;;;;;;;;;;5054725;28;20037;-59
2022/07/04 11:57:54;;;;;;;41.90;39.78;;;;;;;;;;5057758;28;20021;-59
2022/07/04 12:00:26;;;;;;;29.85;28.30;;;;;;;;;;5054034;28;20044;-59
2022/07/04 12:02:51;;;;;;;37.17;35.28;;;;;;;;;;5055025;28;20098;-59
2022/07/04 12:05:18;;;;;;;40.95;38.85;;;;;;;;;;5057090;28;20036;-59
2022/07/04 12:07:48;;;;;;;19.10;18.08;;;;;;;;;;5053689;28;20029;-58
2022/07/04 12:10:16;;;;;;;25.60;24.20;;;;;;;;;;5056252;28;20024;-58
2022/07/04 12:12:55;;;;;;;18.63;17.63;;;;;;;;;;5055217;28;20043;-58
2022/07/04 12:15:22;;;;;;;17.10;16.17;;;;;;;;;;5055504;28;20672;-58
2022/07/04 12:17:54;;;;;;;17.38;16.40;;;;;;;;;;5058846;28;20064;-59
2022/07/04 12:20:21;;;;;;;16.45;15.55;;;;;;;;;;5057637;28;20481;-58
2022/07/04 12:22:52;;;;;;;21.27;20.13;;;;;;;;;;5055974;28;20350;-58
2022/07/04 12:25:34;;;;;;;32.80;31.08;;;;;;;;;;5058312;28;20119;-58
2022/07/04 12:28:17;;;;;;;38.90;36.90;;;;;;;;;;5058095;28;20032;-58
2022/07/04 12:30:57;;;;;;;37.33;35.42;;;;;;;;;;5056045;28;20032;-58
2022/07/04 12:33:24;;;;;;;37.00;35.05;;;;;;;;;;5056245;28;20032;-58
2022/07/04 12:35:58;;;;;;;43.55;41.33;;;;;;;;;;5056622;28;20075;-59
2022/07/04 12:38:26;;;;;;;39.17;37.17;;;;;;;;;;5058081;28;20028;-59
2022/07/04 12:40:59;;;;;;;63.65;60.45;;;;;;;;;;5057634;28;20033;-59
2022/07/04 12:43:52;;;;;;;74.68;70.97;;;;;;;;;;5055799;28;20029;-59
2022/07/04 12:46:23;;;;;;;42.25;40.10;;;;;;;;;;5056300;28;20462;-59
2022/07/04 12:48:50;;;;;;;72.68;69.10;;;;;;;;;;5056214;28;20087;-59
2022/07/04 12:51:20;;;;;;;87.43;83.13;;;;;;;;;;5058047;28;20025;-59
2022/07/04 12:53:49;;;;;;;94.05;89.43;;;;;;;;;;5058269;28;20039;-58
2022/07/04 12:56:28;;;;;;;95.18;90.47;;;;;;;;;;5053739;28;20032;-58
2022/07/04 12:58:54;;;;;;;90.50;86.05;;;;;;;;;;5056000;28;20095;-59
2022/07/04 13:01:20;;;;;;;80.60;76.60;;;;;;;;;;5054565;28;20435;-59
2022/07/04 13:03:45;;;;;;;56.08;53.28;;;;;;;;;;5054302;28;20083;-58
2022/07/04 13:06:10;;;;;;;48.45;46.05;;;;;;;;;;5056023;28;20051;-58
2022/07/04 13:08:36;;;;;;;30.02;28.45;;;;;;;;;;5056840;28;20036;-57
2022/07/04 13:13:45;;;;;;;46.85;44.47;;;;;;;;;;5056456;28;20676;-58
2022/07/04 13:16:10;;;;;;;47.47;45.08;;;;;;;;;;5056421;28;20128;-58
2022/07/04 13:18:36;;;;;;;24.05;22.75;;;;;;;;;;5053182;28;20037;-59
2022/07/04 13:21:01;;;;;;;28.60;27.10;;;;;;;;;;5054491;28;20090;-58
2022/07/04 13:23:27;;;;;;;21.02;19.92;;;;;;;;;;5054031;28;20037;-58
2022/07/04 13:25:52;;;;;;;20.10;19.00;;;;;;;;;;5056606;28;20127;-58
2022/07/04 13:28:17;;;;;;;21.00;19.85;;;;;;;;;;5054214;28;20029;-58
2022/07/04 13:30:43;;;;;;;15.77;14.88;;;;;;;;;;5054475;28;20028;-58
2022/07/04 13:33:08;;;;;;;15.95;15.05;;;;;;;;;;5053932;28;20432;-58
2022/07/04 13:35:33;;;;;;;20.90;19.60;;;;;;;;;;5055363;28;20060;-58
2022/07/04 13:37:59;;;;;;;24.13;22.83;;;;;;;;;;5056409;28;20025;-59
2022/07/04 13:40:24;;;;;;;26.05;24.65;;;;;;;;;;5054211;28;20044;-58
2022/07/04 13:42:58;;;;;;;32.80;31.08;;;;;;;;;;5052786;28;20104;-59
2022/07/04 13:45:25;;;;;;;44.75;42.50;;;;;;;;;;5055431;28;20033;-58
2022/07/04 13:47:51;;;;;;;48.00;45.60;;;;;;;;;;5056394;28;20036;-58
2022/07/04 13:50:16;;;;;;;34.13;32.10;;;;;;;;;;5052339;28;20029;-58
2022/07/04 13:52:43;;;;;;;26.23;24.83;;;;;;;;;;5053658;28;20433;-58
2022/07/04 13:55:08;;;;;;;36.05;34.22;;;;;;;;;;5054749;28;20056;-58
2022/07/04 13:57:35;;;;;;;29.52;28.02;;;;;;;;;;5053599;28;20029;-57
2022/07/04 14:00:00;;;;;;;40.92;38.83;;;;;;;;;;5054123;28;20029;-58
2022/07/04 14:02:26;;;;;;;47.28;44.88;;;;;;;;;;5054319;28;20135;-57
2022/07/04 14:04:51;;;;;;;39.97;37.95;;;;;;;;;;5052342;28;20032;-58
2022/07/04 14:07:16;;;;;;;44.95;42.65;;;;;;;;;;5053999;28;20647;-58
2022/07/04 14:09:42;;;;;;;53.42;50.72;;;;;;;;;;5054494;28;20024;-58
2022/07/04 14:12:08;;;;;;;52.90;50.25;;;;;;;;;;5055216;28;20033;-58
2022/07/04 14:14:33;;;;;;;52.95;50.30;;;;;;;;;;5053463;28;20035;-58
2022/07/04 14:16:59;;;;;;;53.53;50.83;;;;;;;;;;5053315;28;20021;-58
2022/07/04 14:19:25;;;;;;;50.13;47.58;;;;;;;;;;5054954;28;20020;-57
2022/07/04 14:21:51;;;;;;;58.58;55.65;;;;;;;;;;5052485;28;20547;-58
2022/07/04 14:24:17;;;;;;;56.53;53.72;;;;;;;;;;5052726;28;20040;-58
2022/07/04 14:26:43;;;;;;;62.92;59.78;;;;;;;;;;5050759;28;20029;-58
2022/07/04 14:29:08;;;;;;;61.42;58.33;;;;;;;;;;5055482;28;20024;-58
2022/07/04 14:31:33;;;;;;;59.53;56.55;;;;;;;;;;5055175;28;20537;-58
2022/07/04 14:33:59;;;;;;;59.20;56.20;;;;;;;;;;5055827;28;20040;-58
2022/07/04 14:36:24;;;;;;;62.10;59.00;;;;;;;;;;5053001;28;20035;-57